Cfl Performer — PHLY — position and weather

sailwx.info

Track history (hours):
 
Tides and Currents Weather Stations Pressure Air Temp Water Temp Dewpoint Dewpoint Depression Visibility Wind Speed Wind Dir Waves Ship Positions

Cfl Performer

Last reported at 2016-May-02 22:30 UTC. Time now 2016-May-03 05:01 UTC.
Position N 39°18' W 009°50'.

Length 117 m; draft 6.5 m.

Type: Cargo ship. MMSI: 244989000.

Date/timePositionNaut miles runAvg speedWind from/ knotsBaromVisibWave heightAir tempDewpointWater temp
2016-May-02 22:30N 39°18' W 009°50'10 9.8
2016-May-02 21:30N 39°08' W 009°50'9 9.7
2016-May-02 20:33N 38°59' W 009°51'10 9.6
2016-May-02 19:33N 38°49' W 009°51'9 9.4
2016-May-02 18:33N 38°40' W 009°49'9 9.3
2016-May-02 17:33N 38°31' W 009°47'9 9.3
2016-May-02 16:33N 38°22' W 009°44'10 9.6
2016-May-02 15:33N 38°13' W 009°41'10 9.8
2016-May-02 14:33N 38°03' W 009°38'10 9.9
2016-May-02 13:33N 37°53' W 009°35'10 9.8
2016-May-02 12:33N 37°44' W 009°32'1010.0
2016-May-02 11:33N 37°34' W 009°29'10 9.8
2016-May-02 10:33N 37°25' W 009°27'10 9.8
2016-May-02 09:33N 37°15' W 009°24'9 9.4
2016-May-02 08:33N 37°06' W 009°22'9 9.4
2016-May-02 07:33N 36°57' W 009°20'192 9.6
2016-May-01 11:33N 35°59' W 005°32'9 9.1
2016-May-01 10:33N 36°02' W 005°21'226 6.3
2016-Apr-29 22:33N 37°26' W 000°60'1010.5
2016-Apr-29 21:33N 37°30' W 000°48'1110.6
2016-Apr-29 20:33N 37°34' W 000°35'1110.7
2016-Apr-29 19:33N 37°42' W 000°27'1110.8
2016-Apr-29 18:33N 37°51' W 000°20'1110.7
2016-Apr-29 17:33N 38°00' W 000°12'13010.8
2016-Apr-29 05:32N 39°42' E 001°32'1211.8
2016-Apr-29 04:33N 39°51' E 001°42'1211.9
2016-Apr-29 03:33N 39°60' E 001°53'1212.1
2016-Apr-29 02:33N 40°09' E 002°03'1212.1
2016-Apr-29 01:33N 40°18' E 002°13'1212.0
2016-Apr-29 00:33N 40°27' E 002°24'1211.7
2016-Apr-28 23:33N 40°35' E 002°35'1211.6
2016-Apr-28 22:33N 40°41' E 002°48'1211.7
2016-Apr-28 21:33N 40°48' E 003°00'1211.9
2016-Apr-28 20:33N 40°55' E 003°13'1211.7
2016-Apr-28 19:33N 41°02' E 003°26'22410.5
2016-Apr-27 22:17N 43°20' E 007°24'7 8.1
2016-Apr-27 21:25N 43°25' E 007°30'46 6.6
2016-Apr-27 14:25N 43°54' E 008°21'7 7.7
2016-Apr-27 13:33N 43°60' E 008°25'10 9.8
2016-Apr-27 12:33N 44°09' E 008°31'10 9.8
2016-Apr-27 11:33N 44°18' E 008°31'1 0.7
2016-Apr-27 10:28N 44°19' E 008°30'0 0.0
2016-Apr-27 09:28N 44°19' E 008°30'0 0.0
2016-Apr-27 08:28N 44°19' E 008°30'0 0.0
2016-Apr-27 07:28N 44°19' E 008°30'0 0.0
2016-Apr-27 06:10N 44°19' E 008°30'0 0.0
2016-Apr-27 05:31N 44°19' E 008°30'0 0.0
2016-Apr-27 04:22N 44°19' E 008°30'0 0.0
2016-Apr-27 03:31N 44°19' E 008°30'0 0.0
2016-Apr-27 02:31N 44°19' E 008°30'0 0.0
2016-Apr-27 01:19N 44°19' E 008°30'0 0.0
2016-Apr-27 00:22N 44°19' E 008°30'0 0.0
2016-Apr-26 22:31N 44°19' E 008°30'0 0.0
2016-Apr-26 21:31N 44°19' E 008°30'0 0.0
2016-Apr-26 20:31N 44°19' E 008°30'0 0.0
2016-Apr-26 19:19N 44°19' E 008°30'0 0.0
2016-Apr-26 18:22N 44°19' E 008°30'0 0.0
2016-Apr-26 17:28N 44°19' E 008°30'0 0.0
2016-Apr-26 16:31N 44°19' E 008°30'0 0.0
2016-Apr-26 15:31N 44°19' E 008°30'0 0.0
2016-Apr-26 14:31N 44°19' E 008°30'0 0.0
2016-Apr-26 13:31N 44°19' E 008°30'0 0.0
2016-Apr-26 12:28N 44°19' E 008°30'0 0.0
2016-Apr-26 11:31N 44°19' E 008°30'0 0.0
2016-Apr-26 10:31N 44°19' E 008°30'0 0.0
2016-Apr-26 09:31N 44°19' E 008°30'0 0.0
2016-Apr-26 08:22N 44°19' E 008°30'0 0.0
2016-Apr-26 07:22N 44°19' E 008°30'0 0.0
2016-Apr-25 22:31N 44°19' E 008°30'0 0.0
2016-Apr-25 07:25N 44°19' E 008°30'0 0.0
2016-Apr-25 06:31N 44°19' E 008°30'0 0.0
2016-Apr-25 05:31N 44°19' E 008°30'0 0.0
2016-Apr-25 04:16N 44°19' E 008°30'0 0.0
2016-Apr-25 03:31N 44°19' E 008°30'0 0.0
2016-Apr-25 02:19N 44°19' E 008°30'0 0.0
2016-Apr-25 01:31N 44°19' E 008°30'0 0.0
2016-Apr-25 00:31N 44°19' E 008°30'0 0.0
2016-Apr-24 19:07N 44°19' E 008°30'0 0.0
2016-Apr-24 18:31N 44°19' E 008°30'0 0.0
2016-Apr-24 17:28N 44°19' E 008°30'0 0.0
2016-Apr-24 16:31N 44°19' E 008°30'0 0.0
2016-Apr-24 15:31N 44°19' E 008°30'0 0.0
2016-Apr-24 14:31N 44°19' E 008°30'0 0.0
2016-Apr-24 13:31N 44°19' E 008°30'0 0.0
2016-Apr-24 12:31N 44°19' E 008°30'0 0.0
2016-Apr-24 11:31N 44°19' E 008°30'0 0.0
2016-Apr-24 10:28N 44°19' E 008°30'0 0.0
2016-Apr-24 09:25N 44°19' E 008°30'0 0.0
2016-Apr-24 08:31N 44°19' E 008°30'0 0.0
2016-Apr-24 07:19N 44°19' E 008°30'0 0.0
2016-Apr-24 06:04N 44°19' E 008°30'0 0.0
2016-Apr-24 04:04N 44°19' E 008°30'0 0.0
2016-Apr-24 02:10N 44°19' E 008°30'0 0.0
2016-Apr-24 01:04N 44°19' E 008°30'0 0.0
2016-Apr-23 22:22N 44°19' E 008°30'0 0.0
2016-Apr-23 21:22N 44°19' E 008°30'0 0.0
2016-Apr-23 20:28N 44°19' E 008°30'0 0.0
2016-Apr-23 19:16N 44°19' E 008°30'0 0.0
2016-Apr-23 18:04N 44°19' E 008°30'0 0.0
2016-Apr-23 16:28N 44°19' E 008°30'0 0.0
2016-Apr-23 15:28N 44°19' E 008°30'0 0.0
2016-Apr-23 14:28N 44°19' E 008°30'0 0.0
2016-Apr-23 13:28N 44°19' E 008°30'0 0.0
2016-Apr-23 12:22N 44°19' E 008°30'0 0.0
2016-Apr-23 11:22N 44°19' E 008°30'0 0.0
2016-Apr-23 10:28N 44°19' E 008°30'0 0.0
2016-Apr-23 09:16N 44°19' E 008°30'0 0.0
2016-Apr-23 08:22N 44°19' E 008°30'0 0.0
2016-Apr-23 07:22N 44°19' E 008°30'0 0.0
2016-Apr-23 06:28N 44°19' E 008°30'0 0.0
2016-Apr-23 04:33N 44°19' E 008°30'5 4.5
2016-Apr-23 03:28N 44°14' E 008°31'  
Track history (hours):
 
Tides and Currents Weather Stations Pressure Air Temp Water Temp Dewpoint Dewpoint Depression Visibility Wind Speed Wind Dir Waves Ship Positions

Cfl Performer

Last reported at 2016-May-02 22:30 UTC. Time now 2016-May-03 05:01 UTC.
Position N 39°18' W 009°50'.

Length 117 m; draft 6.5 m.

Type: Cargo ship. MMSI: 244989000.

Date/timePositionNaut miles runAvg speedWind from/ knotsBaromVisibWave heightAir tempDewpointWater temp
2016-May-02 22:30N 39°18' W 009°50'10 9.8
2016-May-02 21:30N 39°08' W 009°50'9 9.7
2016-May-02 20:33N 38°59' W 009°51'10 9.6
2016-May-02 19:33N 38°49' W 009°51'9 9.4
2016-May-02 18:33N 38°40' W 009°49'9 9.3
2016-May-02 17:33N 38°31' W 009°47'9 9.3
2016-May-02 16:33N 38°22' W 009°44'10 9.6
2016-May-02 15:33N 38°13' W 009°41'10 9.8
2016-May-02 14:33N 38°03' W 009°38'10 9.9
2016-May-02 13:33N 37°53' W 009°35'10 9.8
2016-May-02 12:33N 37°44' W 009°32'1010.0
2016-May-02 11:33N 37°34' W 009°29'10 9.8
2016-May-02 10:33N 37°25' W 009°27'10 9.8
2016-May-02 09:33N 37°15' W 009°24'9 9.4
2016-May-02 08:33N 37°06' W 009°22'9 9.4
2016-May-02 07:33N 36°57' W 009°20'192 9.6
2016-May-01 11:33N 35°59' W 005°32'9 9.1
2016-May-01 10:33N 36°02' W 005°21'226 6.3
2016-Apr-29 22:33N 37°26' W 000°60'1010.5
2016-Apr-29 21:33N 37°30' W 000°48'1110.6
2016-Apr-29 20:33N 37°34' W 000°35'1110.7
2016-Apr-29 19:33N 37°42' W 000°27'1110.8
2016-Apr-29 18:33N 37°51' W 000°20'1110.7
2016-Apr-29 17:33N 38°00' W 000°12'13010.8
2016-Apr-29 05:32N 39°42' E 001°32'1211.8
2016-Apr-29 04:33N 39°51' E 001°42'1211.9
2016-Apr-29 03:33N 39°60' E 001°53'1212.1
2016-Apr-29 02:33N 40°09' E 002°03'1212.1
2016-Apr-29 01:33N 40°18' E 002°13'1212.0
2016-Apr-29 00:33N 40°27' E 002°24'1211.7
2016-Apr-28 23:33N 40°35' E 002°35'1211.6
2016-Apr-28 22:33N 40°41' E 002°48'1211.7
2016-Apr-28 21:33N 40°48' E 003°00'1211.9
2016-Apr-28 20:33N 40°55' E 003°13'1211.7
2016-Apr-28 19:33N 41°02' E 003°26'22410.5
2016-Apr-27 22:17N 43°20' E 007°24'7 8.1
2016-Apr-27 21:25N 43°25' E 007°30'46 6.6
2016-Apr-27 14:25N 43°54' E 008°21'7 7.7
2016-Apr-27 13:33N 43°60' E 008°25'10 9.8
2016-Apr-27 12:33N 44°09' E 008°31'10 9.8
2016-Apr-27 11:33N 44°18' E 008°31'1 0.7
2016-Apr-27 10:28N 44°19' E 008°30'0 0.0
2016-Apr-27 09:28N 44°19' E 008°30'0 0.0
2016-Apr-27 08:28N 44°19' E 008°30'0 0.0
2016-Apr-27 07:28N 44°19' E 008°30'0 0.0
2016-Apr-27 06:10N 44°19' E 008°30'0 0.0
2016-Apr-27 05:31N 44°19' E 008°30'0 0.0
2016-Apr-27 04:22N 44°19' E 008°30'0 0.0
2016-Apr-27 03:31N 44°19' E 008°30'0 0.0
2016-Apr-27 02:31N 44°19' E 008°30'0 0.0
2016-Apr-27 01:19N 44°19' E 008°30'0 0.0
2016-Apr-27 00:22N 44°19' E 008°30'0 0.0
2016-Apr-26 22:31N 44°19' E 008°30'0 0.0
2016-Apr-26 21:31N 44°19' E 008°30'0 0.0
2016-Apr-26 20:31N 44°19' E 008°30'0 0.0
2016-Apr-26 19:19N 44°19' E 008°30'0 0.0
2016-Apr-26 18:22N 44°19' E 008°30'0 0.0
2016-Apr-26 17:28N 44°19' E 008°30'0 0.0
2016-Apr-26 16:31N 44°19' E 008°30'0 0.0
2016-Apr-26 15:31N 44°19' E 008°30'0 0.0
2016-Apr-26 14:31N 44°19' E 008°30'0 0.0
2016-Apr-26 13:31N 44°19' E 008°30'0 0.0
2016-Apr-26 12:28N 44°19' E 008°30'0 0.0
2016-Apr-26 11:31N 44°19' E 008°30'0 0.0
2016-Apr-26 10:31N 44°19' E 008°30'0 0.0
2016-Apr-26 09:31N 44°19' E 008°30'0 0.0
2016-Apr-26 08:22N 44°19' E 008°30'0 0.0
2016-Apr-26 07:22N 44°19' E 008°30'0 0.0
2016-Apr-25 22:31N 44°19' E 008°30'0 0.0
2016-Apr-25 07:25N 44°19' E 008°30'0 0.0
2016-Apr-25 06:31N 44°19' E 008°30'0 0.0
2016-Apr-25 05:31N 44°19' E 008°30'0 0.0
2016-Apr-25 04:16N 44°19' E 008°30'0 0.0
2016-Apr-25 03:31N 44°19' E 008°30'0 0.0
2016-Apr-25 02:19N 44°19' E 008°30'0 0.0
2016-Apr-25 01:31N 44°19' E 008°30'0 0.0
2016-Apr-25 00:31N 44°19' E 008°30'0 0.0
2016-Apr-24 19:07N 44°19' E 008°30'0 0.0
2016-Apr-24 18:31N 44°19' E 008°30'0 0.0
2016-Apr-24 17:28N 44°19' E 008°30'0 0.0
2016-Apr-24 16:31N 44°19' E 008°30'0 0.0
2016-Apr-24 15:31N 44°19' E 008°30'0 0.0
2016-Apr-24 14:31N 44°19' E 008°30'0 0.0
2016-Apr-24 13:31N 44°19' E 008°30'0 0.0
2016-Apr-24 12:31N 44°19' E 008°30'0 0.0
2016-Apr-24 11:31N 44°19' E 008°30'0 0.0
2016-Apr-24 10:28N 44°19' E 008°30'0 0.0
2016-Apr-24 09:25N 44°19' E 008°30'0 0.0
2016-Apr-24 08:31N 44°19' E 008°30'0 0.0
2016-Apr-24 07:19N 44°19' E 008°30'0 0.0
2016-Apr-24 06:04N 44°19' E 008°30'0 0.0
2016-Apr-24 04:04N 44°19' E 008°30'0 0.0
2016-Apr-24 02:10N 44°19' E 008°30'0 0.0
2016-Apr-24 01:04N 44°19' E 008°30'0 0.0
2016-Apr-23 22:22N 44°19' E 008°30'0 0.0
2016-Apr-23 21:22N 44°19' E 008°30'0 0.0
2016-Apr-23 20:28N 44°19' E 008°30'0 0.0
2016-Apr-23 19:16N 44°19' E 008°30'0 0.0
2016-Apr-23 18:04N 44°19' E 008°30'0 0.0
2016-Apr-23 16:28N 44°19' E 008°30'0 0.0
2016-Apr-23 15:28N 44°19' E 008°30'0 0.0
2016-Apr-23 14:28N 44°19' E 008°30'0 0.0
2016-Apr-23 13:28N 44°19' E 008°30'0 0.0
2016-Apr-23 12:22N 44°19' E 008°30'0 0.0
2016-Apr-23 11:22N 44°19' E 008°30'0 0.0
2016-Apr-23 10:28N 44°19' E 008°30'0 0.0
2016-Apr-23 09:16N 44°19' E 008°30'0 0.0
2016-Apr-23 08:22N 44°19' E 008°30'0 0.0
2016-Apr-23 07:22N 44°19' E 008°30'0 0.0
2016-Apr-23 06:28N 44°19' E 008°30'0 0.0
2016-Apr-23 04:33N 44°19' E 008°30'5 4.5
2016-Apr-23 03:28N 44°14' E 008°31'  

Dump ship's entire track history